sensor_id;sensor_type;location;lat;lon;timestamp;P1;durP1;ratioP1;P2;durP2;ratioP2
63444;SDS011;49573;47.682;9.170;2023-02-28T00:01:50;11.30;;;5.72;;
63444;SDS011;49573;47.682;9.170;2023-02-28T00:04:38;8.40;;;5.35;;
63444;SDS011;49573;47.682;9.170;2023-02-28T00:07:24;9.02;;;5.93;;
63444;SDS011;49573;47.682;9.170;2023-02-28T00:10:11;9.40;;;5.75;;
63444;SDS011;49573;47.682;9.170;2023-02-28T00:12:59;9.27;;;6.13;;
63444;SDS011;49573;47.682;9.170;2023-02-28T00:15:46;8.43;;;5.60;;
63444;SDS011;49573;47.682;9.170;2023-02-28T00:18:32;12.25;;;5.82;;
63444;SDS011;49573;47.682;9.170;2023-02-28T00:21:20;9.52;;;5.78;;
63444;SDS011;49573;47.682;9.170;2023-02-28T00:24:06;10.02;;;6.03;;
63444;SDS011;49573;47.682;9.170;2023-02-28T00:26:53;9.35;;;5.60;;
63444;SDS011;49573;47.682;9.170;2023-02-28T00:29:39;8.70;;;5.28;;
63444;SDS011;49573;47.682;9.170;2023-02-28T00:32:26;9.82;;;5.97;;
63444;SDS011;49573;47.682;9.170;2023-02-28T00:35:12;10.82;;;6.10;;
63444;SDS011;49573;47.682;9.170;2023-02-28T00:38:00;12.02;;;6.25;;
63444;SDS011;49573;47.682;9.170;2023-02-28T00:40:46;11.23;;;6.38;;
63444;SDS011;49573;47.682;9.170;2023-02-28T00:43:33;8.20;;;5.88;;
63444;SDS011;49573;47.682;9.170;2023-02-28T00:49:06;7.97;;;5.45;;
63444;SDS011;49573;47.682;9.170;2023-02-28T00:51:52;10.35;;;5.63;;
63444;SDS011;49573;47.682;9.170;2023-02-28T00:54:40;10.93;;;6.15;;
63444;SDS011;49573;47.682;9.170;2023-02-28T00:57:27;11.20;;;6.05;;
63444;SDS011;49573;47.682;9.170;2023-02-28T01:00:13;6.85;;;5.28;;
63444;SDS011;49573;47.682;9.170;2023-02-28T01:03:00;9.15;;;6.18;;
63444;SDS011;49573;47.682;9.170;2023-02-28T01:05:46;8.63;;;5.50;;
63444;SDS011;49573;47.682;9.170;2023-02-28T01:08:33;7.43;;;5.30;;
63444;SDS011;49573;47.682;9.170;2023-02-28T01:11:20;8.30;;;5.60;;
63444;SDS011;49573;47.682;9.170;2023-02-28T01:14:08;9.15;;;6.20;;
63444;SDS011;49573;47.682;9.170;2023-02-28T01:16:54;7.82;;;5.38;;
63444;SDS011;49573;47.682;9.170;2023-02-28T01:19:41;9.38;;;5.80;;
63444;SDS011;49573;47.682;9.170;2023-02-28T01:22:27;8.23;;;5.78;;
63444;SDS011;49573;47.682;9.170;2023-02-28T01:25:13;9.98;;;6.18;;
63444;SDS011;49573;47.682;9.170;2023-02-28T01:28:01;7.57;;;5.60;;
63444;SDS011;49573;47.682;9.170;2023-02-28T01:30:48;8.93;;;5.70;;
63444;SDS011;49573;47.682;9.170;2023-02-28T01:33:34;8.65;;;5.55;;
63444;SDS011;49573;47.682;9.170;2023-02-28T01:36:21;8.75;;;5.75;;
63444;SDS011;49573;47.682;9.170;2023-02-28T01:39:08;9.13;;;6.20;;
63444;SDS011;49573;47.682;9.170;2023-02-28T01:41:55;7.70;;;5.57;;
63444;SDS011;49573;47.682;9.170;2023-02-28T01:44:57;8.60;;;5.32;;
63444;SDS011;49573;47.682;9.170;2023-02-28T01:47:44;7.82;;;5.60;;
63444;SDS011;49573;47.682;9.170;2023-02-28T01:50:32;8.50;;;5.97;;
63444;SDS011;49573;47.682;9.170;2023-02-28T01:53:21;10.40;;;6.00;;
63444;SDS011;49573;47.682;9.170;2023-02-28T01:56:09;9.75;;;6.10;;
63444;SDS011;49573;47.682;9.170;2023-02-28T01:58:57;7.45;;;5.32;;
63444;SDS011;49573;47.682;9.170;2023-02-28T02:01:45;9.73;;;5.63;;
63444;SDS011;49573;47.682;9.170;2023-02-28T02:04:32;9.27;;;5.30;;
63444;SDS011;49573;47.682;9.170;2023-02-28T02:07:20;9.73;;;5.55;;
63444;SDS011;49573;47.682;9.170;2023-02-28T02:10:10;8.27;;;5.75;;
63444;SDS011;49573;47.682;9.170;2023-02-28T02:13:03;15.88;;;7.88;;
63444;SDS011;49573;47.682;9.170;2023-02-28T02:15:54;7.53;;;5.07;;
63444;SDS011;49573;47.682;9.170;2023-02-28T02:18:45;8.98;;;5.88;;
63444;SDS011;49573;47.682;9.170;2023-02-28T02:24:54;9.02;;;5.47;;
63444;SDS011;49573;47.682;9.170;2023-02-28T02:27:57;7.43;;;5.43;;
63444;SDS011;49573;47.682;9.170;2023-02-28T02:30:53;8.70;;;5.13;;
63444;SDS011;49573;47.682;9.170;2023-02-28T02:33:48;8.30;;;5.30;;
63444;SDS011;49573;47.682;9.170;2023-02-28T02:36:39;9.82;;;5.32;;
63444;SDS011;49573;47.682;9.170;2023-02-28T02:39:29;9.25;;;5.78;;
63444;SDS011;49573;47.682;9.170;2023-02-28T02:42:19;6.72;;;5.07;;
63444;SDS011;49573;47.682;9.170;2023-02-28T02:45:09;7.65;;;5.28;;
63444;SDS011;49573;47.682;9.170;2023-02-28T02:47:56;9.10;;;5.00;;
63444;SDS011;49573;47.682;9.170;2023-02-28T02:50:47;6.78;;;4.88;;
63444;SDS011;49573;47.682;9.170;2023-02-28T02:53:36;7.75;;;5.13;;
63444;SDS011;49573;47.682;9.170;2023-02-28T02:56:25;7.60;;;5.13;;
63444;SDS011;49573;47.682;9.170;2023-02-28T02:59:12;7.38;;;5.05;;
63444;SDS011;49573;47.682;9.170;2023-02-28T03:02:01;7.45;;;5.00;;
63444;SDS011;49573;47.682;9.170;2023-02-28T03:04:49;9.75;;;5.38;;
63444;SDS011;49573;47.682;9.170;2023-02-28T03:07:37;7.30;;;4.70;;
63444;SDS011;49573;47.682;9.170;2023-02-28T03:10:33;7.60;;;4.82;;
63444;SDS011;49573;47.682;9.170;2023-02-28T03:13:24;7.10;;;4.70;;
63444;SDS011;49573;47.682;9.170;2023-02-28T03:16:19;7.05;;;4.95;;
63444;SDS011;49573;47.682;9.170;2023-02-28T03:19:12;8.35;;;5.32;;
63444;SDS011;49573;47.682;9.170;2023-02-28T03:22:08;7.43;;;4.93;;
63444;SDS011;49573;47.682;9.170;2023-02-28T03:24:56;7.28;;;5.00;;
63444;SDS011;49573;47.682;9.170;2023-02-28T03:27:47;8.57;;;5.28;;
63444;SDS011;49573;47.682;9.170;2023-02-28T03:30:38;6.93;;;4.90;;
63444;SDS011;49573;47.682;9.170;2023-02-28T03:33:28;8.00;;;4.97;;
63444;SDS011;49573;47.682;9.170;2023-02-28T03:36:17;6.63;;;4.65;;
63444;SDS011;49573;47.682;9.170;2023-02-28T03:39:05;8.30;;;5.63;;
63444;SDS011;49573;47.682;9.170;2023-02-28T03:41:56;9.50;;;5.53;;
63444;SDS011;49573;47.682;9.170;2023-02-28T03:44:45;6.80;;;4.60;;
63444;SDS011;49573;47.682;9.170;2023-02-28T03:47:32;8.00;;;5.70;;
63444;SDS011;49573;47.682;9.170;2023-02-28T03:50:22;8.40;;;5.20;;
63444;SDS011;49573;47.682;9.170;2023-02-28T03:53:10;7.60;;;5.47;;
63444;SDS011;49573;47.682;9.170;2023-02-28T03:55:59;8.82;;;5.30;;
63444;SDS011;49573;47.682;9.170;2023-02-28T03:58:49;8.35;;;5.18;;
63444;SDS011;49573;47.682;9.170;2023-02-28T04:01:39;7.35;;;4.72;;
63444;SDS011;49573;47.682;9.170;2023-02-28T04:04:32;8.60;;;5.13;;
63444;SDS011;49573;47.682;9.170;2023-02-28T04:07:19;7.38;;;4.68;;
63444;SDS011;49573;47.682;9.170;2023-02-28T04:10:06;6.82;;;4.68;;
63444;SDS011;49573;47.682;9.170;2023-02-28T04:12:52;8.05;;;5.30;;
63444;SDS011;49573;47.682;9.170;2023-02-28T04:15:39;7.53;;;5.13;;
63444;SDS011;49573;47.682;9.170;2023-02-28T04:21:14;8.88;;;5.55;;
63444;SDS011;49573;47.682;9.170;2023-02-28T04:24:00;8.30;;;4.97;;
63444;SDS011;49573;47.682;9.170;2023-02-28T04:26:47;7.53;;;4.95;;
63444;SDS011;49573;47.682;9.170;2023-02-28T04:29:34;13.05;;;8.77;;
63444;SDS011;49573;47.682;9.170;2023-02-28T04:32:20;8.63;;;5.78;;
63444;SDS011;49573;47.682;9.170;2023-02-28T04:35:07;12.18;;;6.18;;
63444;SDS011;49573;47.682;9.170;2023-02-28T04:37:55;12.95;;;5.82;;
63444;SDS011;49573;47.682;9.170;2023-02-28T04:40:41;8.13;;;5.30;;
63444;SDS011;49573;47.682;9.170;2023-02-28T04:43:28;7.60;;;5.18;;
63444;SDS011;49573;47.682;9.170;2023-02-28T04:46:15;7.00;;;5.30;;
63444;SDS011;49573;47.682;9.170;2023-02-28T04:49:01;7.75;;;5.30;;
63444;SDS011;49573;47.682;9.170;2023-02-28T04:51:48;8.35;;;5.80;;
63444;SDS011;49573;47.682;9.170;2023-02-28T04:57:25;10.05;;;6.22;;
63444;SDS011;49573;47.682;9.170;2023-02-28T05:00:11;11.55;;;6.03;;
63444;SDS011;49573;47.682;9.170;2023-02-28T05:03:00;10.48;;;6.30;;
63444;SDS011;49573;47.682;9.170;2023-02-28T05:05:46;8.73;;;6.03;;
63444;SDS011;49573;47.682;9.170;2023-02-28T05:08:33;8.05;;;5.95;;
63444;SDS011;49573;47.682;9.170;2023-02-28T05:11:20;10.02;;;6.25;;
63444;SDS011;49573;47.682;9.170;2023-02-28T05:14:10;8.48;;;5.78;;
63444;SDS011;49573;47.682;9.170;2023-02-28T05:16:57;7.63;;;5.25;;
63444;SDS011;49573;47.682;9.170;2023-02-28T05:19:43;7.60;;;5.65;;
63444;SDS011;49573;47.682;9.170;2023-02-28T05:22:29;8.38;;;6.00;;
63444;SDS011;49573;47.682;9.170;2023-02-28T05:25:17;11.60;;;6.40;;
63444;SDS011;49573;47.682;9.170;2023-02-28T05:28:04;9.07;;;6.63;;
63444;SDS011;49573;47.682;9.170;2023-02-28T05:30:51;8.52;;;6.05;;
63444;SDS011;49573;47.682;9.170;2023-02-28T05:33:38;8.82;;;6.10;;
63444;SDS011;49573;47.682;9.170;2023-02-28T05:36:25;10.00;;;6.40;;
63444;SDS011;49573;47.682;9.170;2023-02-28T05:39:11;8.23;;;6.28;;
63444;SDS011;49573;47.682;9.170;2023-02-28T05:41:58;12.07;;;6.40;;
63444;SDS011;49573;47.682;9.170;2023-02-28T05:44:44;8.98;;;6.25;;
63444;SDS011;49573;47.682;9.170;2023-02-28T05:47:32;10.75;;;7.13;;
63444;SDS011;49573;47.682;9.170;2023-02-28T05:50:18;10.07;;;6.38;;
63444;SDS011;49573;47.682;9.170;2023-02-28T05:53:05;8.15;;;6.13;;
63444;SDS011;49573;47.682;9.170;2023-02-28T05:55:51;8.85;;;6.30;;
63444;SDS011;49573;47.682;9.170;2023-02-28T05:58:37;7.78;;;5.63;;
63444;SDS011;49573;47.682;9.170;2023-02-28T06:01:31;8.82;;;5.75;;
63444;SDS011;49573;47.682;9.170;2023-02-28T06:04:19;8.18;;;5.60;;
63444;SDS011;49573;47.682;9.170;2023-02-28T06:07:06;9.10;;;6.47;;
63444;SDS011;49573;47.682;9.170;2023-02-28T06:09:53;11.90;;;7.53;;
63444;SDS011;49573;47.682;9.170;2023-02-28T06:12:40;10.27;;;6.43;;
63444;SDS011;49573;47.682;9.170;2023-02-28T06:15:29;9.68;;;6.15;;
63444;SDS011;49573;47.682;9.170;2023-02-28T06:18:16;9.88;;;6.15;;
63444;SDS011;49573;47.682;9.170;2023-02-28T06:21:04;10.57;;;6.38;;
63444;SDS011;49573;47.682;9.170;2023-02-28T06:23:50;10.20;;;6.90;;
63444;SDS011;49573;47.682;9.170;2023-02-28T06:26:37;10.85;;;7.20;;
63444;SDS011;49573;47.682;9.170;2023-02-28T06:29:23;9.52;;;6.38;;
63444;SDS011;49573;47.682;9.170;2023-02-28T06:32:09;9.55;;;6.32;;
63444;SDS011;49573;47.682;9.170;2023-02-28T06:34:56;11.52;;;7.18;;
63444;SDS011;49573;47.682;9.170;2023-02-28T06:37:44;9.07;;;6.50;;
63444;SDS011;49573;47.682;9.170;2023-02-28T06:40:32;10.30;;;5.97;;
63444;SDS011;49573;47.682;9.170;2023-02-28T06:43:20;10.27;;;7.00;;
63444;SDS011;49573;47.682;9.170;2023-02-28T06:46:07;10.52;;;7.25;;
63444;SDS011;49573;47.682;9.170;2023-02-28T06:48:54;10.00;;;6.60;;
63444;SDS011;49573;47.682;9.170;2023-02-28T06:51:40;10.55;;;6.00;;
63444;SDS011;49573;47.682;9.170;2023-02-28T06:54:30;30.73;;;8.95;;
63444;SDS011;49573;47.682;9.170;2023-02-28T06:57:16;48.70;;;19.17;;
63444;SDS011;49573;47.682;9.170;2023-02-28T07:00:04;80.05;;;29.13;;
63444;SDS011;49573;47.682;9.170;2023-02-28T07:02:52;36.70;;;16.63;;
63444;SDS011;49573;47.682;9.170;2023-02-28T07:05:40;50.33;;;21.90;;
63444;SDS011;49573;47.682;9.170;2023-02-28T07:08:26;30.48;;;15.75;;
63444;SDS011;49573;47.682;9.170;2023-02-28T07:11:15;23.92;;;12.18;;
63444;SDS011;49573;47.682;9.170;2023-02-28T07:14:01;14.48;;;7.65;;
63444;SDS011;49573;47.682;9.170;2023-02-28T07:16:47;13.60;;;6.80;;
63444;SDS011;49573;47.682;9.170;2023-02-28T07:19:35;9.20;;;6.28;;
63444;SDS011;49573;47.682;9.170;2023-02-28T07:22:22;9.75;;;6.30;;
63444;SDS011;49573;47.682;9.170;2023-02-28T07:25:09;12.40;;;6.78;;
63444;SDS011;49573;47.682;9.170;2023-02-28T07:27:57;11.68;;;6.85;;
63444;SDS011;49573;47.682;9.170;2023-02-28T07:30:44;9.82;;;6.43;;
63444;SDS011;49573;47.682;9.170;2023-02-28T07:33:30;10.45;;;6.95;;
63444;SDS011;49573;47.682;9.170;2023-02-28T07:36:17;12.52;;;6.95;;
63444;SDS011;49573;47.682;9.170;2023-02-28T07:39:06;10.02;;;6.75;;
63444;SDS011;49573;47.682;9.170;2023-02-28T07:41:55;12.10;;;7.32;;
63444;SDS011;49573;47.682;9.170;2023-02-28T07:44:43;11.13;;;7.28;;
63444;SDS011;49573;47.682;9.170;2023-02-28T07:47:29;10.23;;;6.47;;
63444;SDS011;49573;47.682;9.170;2023-02-28T07:50:16;10.98;;;7.05;;
63444;SDS011;49573;47.682;9.170;2023-02-28T07:53:02;11.43;;;6.75;;
63444;SDS011;49573;47.682;9.170;2023-02-28T07:55:49;12.23;;;7.88;;
63444;SDS011;49573;47.682;9.170;2023-02-28T07:58:36;12.57;;;7.22;;
63444;SDS011;49573;47.682;9.170;2023-02-28T08:01:24;9.98;;;6.80;;
63444;SDS011;49573;47.682;9.170;2023-02-28T08:04:10;9.98;;;6.97;;
63444;SDS011;49573;47.682;9.170;2023-02-28T08:06:56;10.57;;;7.50;;
63444;SDS011;49573;47.682;9.170;2023-02-28T08:09:43;11.23;;;6.75;;
63444;SDS011;49573;47.682;9.170;2023-02-28T08:12:29;11.80;;;6.70;;
63444;SDS011;49573;47.682;9.170;2023-02-28T08:15:15;13.90;;;7.18;;
63444;SDS011;49573;47.682;9.170;2023-02-28T08:18:03;10.90;;;7.07;;
63444;SDS011;49573;47.682;9.170;2023-02-28T08:20:50;11.32;;;7.03;;
63444;SDS011;49573;47.682;9.170;2023-02-28T08:23:36;9.15;;;6.13;;
63444;SDS011;49573;47.682;9.170;2023-02-28T08:26:23;10.00;;;6.28;;
63444;SDS011;49573;47.682;9.170;2023-02-28T08:29:09;10.90;;;7.40;;
63444;SDS011;49573;47.682;9.170;2023-02-28T08:31:56;9.55;;;6.57;;
63444;SDS011;49573;47.682;9.170;2023-02-28T08:34:45;10.68;;;6.93;;
63444;SDS011;49573;47.682;9.170;2023-02-28T08:37:32;10.18;;;7.15;;
63444;SDS011;49573;47.682;9.170;2023-02-28T08:40:18;11.95;;;7.05;;
63444;SDS011;49573;47.682;9.170;2023-02-28T08:43:04;10.35;;;6.70;;
63444;SDS011;49573;47.682;9.170;2023-02-28T08:45:52;10.45;;;7.13;;
63444;SDS011;49573;47.682;9.170;2023-02-28T08:48:39;10.45;;;6.82;;
63444;SDS011;49573;47.682;9.170;2023-02-28T08:51:27;11.70;;;7.07;;
63444;SDS011;49573;47.682;9.170;2023-02-28T08:54:14;10.75;;;7.20;;
63444;SDS011;49573;47.682;9.170;2023-02-28T08:57:04;12.75;;;7.05;;
63444;SDS011;49573;47.682;9.170;2023-02-28T08:59:51;11.48;;;7.38;;
63444;SDS011;49573;47.682;9.170;2023-02-28T09:02:37;11.05;;;7.18;;
63444;SDS011;49573;47.682;9.170;2023-02-28T09:05:24;10.18;;;6.88;;
63444;SDS011;49573;47.682;9.170;2023-02-28T09:08:12;12.20;;;7.32;;
63444;SDS011;49573;47.682;9.170;2023-02-28T09:10:58;12.00;;;7.15;;
63444;SDS011;49573;47.682;9.170;2023-02-28T09:13:45;11.70;;;7.60;;
63444;SDS011;49573;47.682;9.170;2023-02-28T09:16:31;12.95;;;6.90;;
63444;SDS011;49573;47.682;9.170;2023-02-28T09:19:18;11.88;;;7.70;;
63444;SDS011;49573;47.682;9.170;2023-02-28T09:22:04;11.23;;;7.57;;
63444;SDS011;49573;47.682;9.170;2023-02-28T09:24:52;12.45;;;7.20;;
63444;SDS011;49573;47.682;9.170;2023-02-28T09:27:38;11.07;;;7.13;;
63444;SDS011;49573;47.682;9.170;2023-02-28T09:30:25;11.55;;;7.07;;
63444;SDS011;49573;47.682;9.170;2023-02-28T09:33:12;12.02;;;7.90;;
63444;SDS011;49573;47.682;9.170;2023-02-28T09:38:45;11.05;;;7.22;;
63444;SDS011;49573;47.682;9.170;2023-02-28T09:41:36;10.85;;;6.47;;
63444;SDS011;49573;47.682;9.170;2023-02-28T09:44:26;10.82;;;7.32;;
63444;SDS011;49573;47.682;9.170;2023-02-28T09:47:17;11.55;;;6.93;;
63444;SDS011;49573;47.682;9.170;2023-02-28T09:50:06;10.45;;;7.10;;
63444;SDS011;49573;47.682;9.170;2023-02-28T09:52:55;11.05;;;7.15;;
63444;SDS011;49573;47.682;9.170;2023-02-28T09:55:42;11.00;;;7.57;;
63444;SDS011;49573;47.682;9.170;2023-02-28T09:58:33;12.82;;;7.97;;
63444;SDS011;49573;47.682;9.170;2023-02-28T10:01:21;11.65;;;7.43;;
63444;SDS011;49573;47.682;9.170;2023-02-28T10:04:12;11.98;;;7.22;;
63444;SDS011;49573;47.682;9.170;2023-02-28T10:07:01;10.88;;;7.43;;
63444;SDS011;49573;47.682;9.170;2023-02-28T10:09:50;12.93;;;7.38;;
63444;SDS011;49573;47.682;9.170;2023-02-28T10:12:38;11.35;;;7.57;;
63444;SDS011;49573;47.682;9.170;2023-02-28T10:15:29;11.20;;;7.72;;
63444;SDS011;49573;47.682;9.170;2023-02-28T10:18:19;11.73;;;7.45;;
63444;SDS011;49573;47.682;9.170;2023-02-28T10:21:05;12.02;;;7.22;;
63444;SDS011;49573;47.682;9.170;2023-02-28T10:23:57;11.90;;;8.07;;
63444;SDS011;49573;47.682;9.170;2023-02-28T10:26:45;12.68;;;7.07;;
63444;SDS011;49573;47.682;9.170;2023-02-28T10:29:33;13.48;;;7.63;;
63444;SDS011;49573;47.682;9.170;2023-02-28T10:32:22;13.43;;;8.02;;
63444;SDS011;49573;47.682;9.170;2023-02-28T10:35:14;11.52;;;6.93;;
63444;SDS011;49573;47.682;9.170;2023-02-28T10:38:01;12.40;;;7.47;;
63444;SDS011;49573;47.682;9.170;2023-02-28T10:41:09;11.10;;;6.72;;
63444;SDS011;49573;47.682;9.170;2023-02-28T10:44:12;9.88;;;6.82;;
63444;SDS011;49573;47.682;9.170;2023-02-28T10:46:58;12.35;;;7.88;;
63444;SDS011;49573;47.682;9.170;2023-02-28T10:49:48;11.40;;;7.85;;
63444;SDS011;49573;47.682;9.170;2023-02-28T10:52:36;11.73;;;7.38;;
63444;SDS011;49573;47.682;9.170;2023-02-28T10:55:23;11.77;;;7.68;;
63444;SDS011;49573;47.682;9.170;2023-02-28T10:58:20;11.18;;;7.38;;
63444;SDS011;49573;47.682;9.170;2023-02-28T11:01:10;11.30;;;7.93;;
63444;SDS011;49573;47.682;9.170;2023-02-28T11:03:59;11.20;;;6.93;;
63444;SDS011;49573;47.682;9.170;2023-02-28T11:06:47;10.75;;;7.47;;
63444;SDS011;49573;47.682;9.170;2023-02-28T11:09:34;11.98;;;7.60;;
63444;SDS011;49573;47.682;9.170;2023-02-28T11:12:22;10.95;;;7.45;;
63444;SDS011;49573;47.682;9.170;2023-02-28T11:15:18;11.10;;;7.60;;
63444;SDS011;49573;47.682;9.170;2023-02-28T11:18:15;12.15;;;7.80;;
63444;SDS011;49573;47.682;9.170;2023-02-28T11:23:54;12.55;;;7.32;;
63444;SDS011;49573;47.682;9.170;2023-02-28T11:26:42;11.93;;;8.07;;
63444;SDS011;49573;47.682;9.170;2023-02-28T11:29:30;15.00;;;8.55;;
63444;SDS011;49573;47.682;9.170;2023-02-28T11:32:19;13.30;;;8.68;;
63444;SDS011;49573;47.682;9.170;2023-02-28T11:35:13;13.10;;;8.25;;
63444;SDS011;49573;47.682;9.170;2023-02-28T11:38:02;14.77;;;8.02;;
63444;SDS011;49573;47.682;9.170;2023-02-28T11:40:53;11.90;;;8.02;;
63444;SDS011;49573;47.682;9.170;2023-02-28T11:43:48;13.35;;;8.88;;
63444;SDS011;49573;47.682;9.170;2023-02-28T11:46:39;13.02;;;8.18;;
63444;SDS011;49573;47.682;9.170;2023-02-28T11:49:30;13.75;;;8.65;;
63444;SDS011;49573;47.682;9.170;2023-02-28T11:52:20;14.35;;;9.20;;
63444;SDS011;49573;47.682;9.170;2023-02-28T11:55:09;12.32;;;8.77;;
63444;SDS011;49573;47.682;9.170;2023-02-28T11:58:16;14.35;;;9.38;;
63444;SDS011;49573;47.682;9.170;2023-02-28T12:01:09;12.25;;;8.10;;
63444;SDS011;49573;47.682;9.170;2023-02-28T12:04:03;13.27;;;8.50;;
63444;SDS011;49573;47.682;9.170;2023-02-28T12:06:52;12.50;;;8.40;;
63444;SDS011;49573;47.682;9.170;2023-02-28T12:09:47;13.07;;;9.10;;
63444;SDS011;49573;47.682;9.170;2023-02-28T12:12:40;13.48;;;9.05;;
63444;SDS011;49573;47.682;9.170;2023-02-28T12:15:36;11.57;;;7.72;;
63444;SDS011;49573;47.682;9.170;2023-02-28T12:18:31;13.98;;;9.10;;
63444;SDS011;49573;47.682;9.170;2023-02-28T12:21:25;14.90;;;9.63;;
63444;SDS011;49573;47.682;9.170;2023-02-28T12:24:19;14.98;;;9.50;;
63444;SDS011;49573;47.682;9.170;2023-02-28T12:29:58;14.02;;;9.25;;
63444;SDS011;49573;47.682;9.170;2023-02-28T12:32:46;15.45;;;9.80;;
63444;SDS011;49573;47.682;9.170;2023-02-28T12:35:34;12.88;;;8.82;;
63444;SDS011;49573;47.682;9.170;2023-02-28T12:38:24;14.10;;;9.30;;
63444;SDS011;49573;47.682;9.170;2023-02-28T12:41:12;14.70;;;8.95;;
63444;SDS011;49573;47.682;9.170;2023-02-28T12:44:00;15.07;;;9.50;;
63444;SDS011;49573;47.682;9.170;2023-02-28T12:46:48;13.65;;;9.65;;
63444;SDS011;49573;47.682;9.170;2023-02-28T12:49:38;12.95;;;9.05;;
63444;SDS011;49573;47.682;9.170;2023-02-28T12:52:41;14.82;;;9.48;;
63444;SDS011;49573;47.682;9.170;2023-02-28T12:55:33;16.00;;;8.77;;
63444;SDS011;49573;47.682;9.170;2023-02-28T12:58:20;15.57;;;9.23;;
63444;SDS011;49573;47.682;9.170;2023-02-28T13:01:26;17.52;;;9.65;;
63444;SDS011;49573;47.682;9.170;2023-02-28T13:04:21;16.75;;;10.18;;
63444;SDS011;49573;47.682;9.170;2023-02-28T13:07:19;16.27;;;10.07;;
63444;SDS011;49573;47.682;9.170;2023-02-28T13:10:11;14.25;;;9.38;;
63444;SDS011;49573;47.682;9.170;2023-02-28T13:13:01;14.18;;;9.52;;
63444;SDS011;49573;47.682;9.170;2023-02-28T13:15:59;15.68;;;9.25;;
63444;SDS011;49573;47.682;9.170;2023-02-28T13:18:46;17.37;;;10.27;;
63444;SDS011;49573;47.682;9.170;2023-02-28T13:21:32;15.80;;;9.73;;
63444;SDS011;49573;47.682;9.170;2023-02-28T13:24:42;16.08;;;9.60;;
63444;SDS011;49573;47.682;9.170;2023-02-28T13:27:33;16.15;;;10.13;;
63444;SDS011;49573;47.682;9.170;2023-02-28T13:33:26;14.60;;;10.02;;
63444;SDS011;49573;47.682;9.170;2023-02-28T13:36:23;14.50;;;9.35;;
63444;SDS011;49573;47.682;9.170;2023-02-28T13:42:30;16.75;;;10.38;;
63444;SDS011;49573;47.682;9.170;2023-02-28T13:45:25;15.50;;;10.50;;
63444;SDS011;49573;47.682;9.170;2023-02-28T13:48:16;15.85;;;10.40;;
63444;SDS011;49573;47.682;9.170;2023-02-28T13:54:03;16.30;;;10.68;;
63444;SDS011;49573;47.682;9.170;2023-02-28T13:56:55;15.38;;;9.60;;
63444;SDS011;49573;47.682;9.170;2023-02-28T13:59:47;14.43;;;9.85;;
63444;SDS011;49573;47.682;9.170;2023-02-28T14:02:37;14.35;;;9.73;;
63444;SDS011;49573;47.682;9.170;2023-02-28T14:05:28;13.95;;;9.40;;
63444;SDS011;49573;47.682;9.170;2023-02-28T14:08:16;15.52;;;10.15;;
63444;SDS011;49573;47.682;9.170;2023-02-28T14:11:08;15.98;;;10.60;;
63444;SDS011;49573;47.682;9.170;2023-02-28T14:13:55;15.02;;;10.05;;
63444;SDS011;49573;47.682;9.170;2023-02-28T14:16:43;17.80;;;11.02;;
63444;SDS011;49573;47.682;9.170;2023-02-28T14:19:31;15.73;;;10.32;;
63444;SDS011;49573;47.682;9.170;2023-02-28T14:25:07;17.52;;;11.13;;
63444;SDS011;49573;47.682;9.170;2023-02-28T14:27:58;17.52;;;10.20;;
63444;SDS011;49573;47.682;9.170;2023-02-28T14:33:59;17.75;;;11.15;;
63444;SDS011;49573;47.682;9.170;2023-02-28T14:36:49;16.15;;;10.88;;
63444;SDS011;49573;47.682;9.170;2023-02-28T14:39:36;16.67;;;10.75;;
63444;SDS011;49573;47.682;9.170;2023-02-28T14:42:30;14.85;;;9.57;;
63444;SDS011;49573;47.682;9.170;2023-02-28T14:45:17;16.35;;;10.45;;
63444;SDS011;49573;47.682;9.170;2023-02-28T14:48:05;18.17;;;11.80;;
63444;SDS011;49573;47.682;9.170;2023-02-28T14:50:57;16.73;;;10.90;;
63444;SDS011;49573;47.682;9.170;2023-02-28T14:53:44;16.15;;;10.88;;
63444;SDS011;49573;47.682;9.170;2023-02-28T14:56:34;18.33;;;10.77;;
63444;SDS011;49573;47.682;9.170;2023-02-28T14:59:23;17.45;;;10.77;;
63444;SDS011;49573;47.682;9.170;2023-02-28T15:02:20;19.13;;;11.02;;
63444;SDS011;49573;47.682;9.170;2023-02-28T15:05:19;18.10;;;11.07;;
63444;SDS011;49573;47.682;9.170;2023-02-28T15:08:12;17.05;;;11.50;;
63444;SDS011;49573;47.682;9.170;2023-02-28T15:10:59;18.20;;;11.50;;
63444;SDS011;49573;47.682;9.170;2023-02-28T15:13:47;17.73;;;11.32;;
63444;SDS011;49573;47.682;9.170;2023-02-28T15:16:35;16.17;;;10.85;;
63444;SDS011;49573;47.682;9.170;2023-02-28T15:19:24;17.67;;;11.23;;
63444;SDS011;49573;47.682;9.170;2023-02-28T15:22:13;17.42;;;11.32;;
63444;SDS011;49573;47.682;9.170;2023-02-28T15:25:03;17.33;;;10.43;;
63444;SDS011;49573;47.682;9.170;2023-02-28T15:27:51;17.63;;;10.60;;
63444;SDS011;49573;47.682;9.170;2023-02-28T15:30:38;16.00;;;10.38;;
63444;SDS011;49573;47.682;9.170;2023-02-28T15:33:26;13.23;;;9.85;;
63444;SDS011;49573;47.682;9.170;2023-02-28T15:36:13;16.52;;;10.05;;
63444;SDS011;49573;47.682;9.170;2023-02-28T15:39:00;15.85;;;10.25;;
63444;SDS011;49573;47.682;9.170;2023-02-28T15:41:48;14.93;;;9.93;;
63444;SDS011;49573;47.682;9.170;2023-02-28T15:44:35;15.02;;;9.95;;
63444;SDS011;49573;47.682;9.170;2023-02-28T15:47:22;13.50;;;10.10;;
63444;SDS011;49573;47.682;9.170;2023-02-28T15:50:10;12.93;;;9.85;;
63444;SDS011;49573;47.682;9.170;2023-02-28T15:52:58;15.57;;;10.32;;
63444;SDS011;49573;47.682;9.170;2023-02-28T15:55:51;15.13;;;10.88;;
63444;SDS011;49573;47.682;9.170;2023-02-28T15:58:39;15.32;;;10.10;;
63444;SDS011;49573;47.682;9.170;2023-02-28T16:01:28;14.98;;;11.27;;
63444;SDS011;49573;47.682;9.170;2023-02-28T16:04:18;13.75;;;10.20;;
63444;SDS011;49573;47.682;9.170;2023-02-28T16:09:51;15.15;;;10.73;;
63444;SDS011;49573;47.682;9.170;2023-02-28T16:12:38;14.57;;;10.60;;
63444;SDS011;49573;47.682;9.170;2023-02-28T16:15:26;14.43;;;10.98;;
63444;SDS011;49573;47.682;9.170;2023-02-28T16:18:14;16.52;;;10.70;;
63444;SDS011;49573;47.682;9.170;2023-02-28T16:21:00;15.35;;;10.77;;
63444;SDS011;49573;47.682;9.170;2023-02-28T16:23:46;16.30;;;10.30;;
63444;SDS011;49573;47.682;9.170;2023-02-28T16:26:33;15.43;;;9.68;;
63444;SDS011;49573;47.682;9.170;2023-02-28T16:32:10;14.20;;;10.15;;
63444;SDS011;49573;47.682;9.170;2023-02-28T16:34:56;15.20;;;10.50;;
63444;SDS011;49573;47.682;9.170;2023-02-28T16:37:43;15.70;;;10.85;;
63444;SDS011;49573;47.682;9.170;2023-02-28T16:40:29;17.08;;;11.60;;
63444;SDS011;49573;47.682;9.170;2023-02-28T16:43:19;14.65;;;10.88;;
63444;SDS011;49573;47.682;9.170;2023-02-28T16:46:08;14.57;;;10.57;;
63444;SDS011;49573;47.682;9.170;2023-02-28T16:48:57;13.95;;;10.02;;
63444;SDS011;49573;47.682;9.170;2023-02-28T16:51:44;15.05;;;10.32;;
63444;SDS011;49573;47.682;9.170;2023-02-28T16:54:30;16.83;;;11.70;;
63444;SDS011;49573;47.682;9.170;2023-02-28T16:57:17;16.48;;;10.77;;
63444;SDS011;49573;47.682;9.170;2023-02-28T17:00:05;17.42;;;11.60;;
63444;SDS011;49573;47.682;9.170;2023-02-28T17:02:53;15.30;;;10.90;;
63444;SDS011;49573;47.682;9.170;2023-02-28T17:05:41;15.80;;;10.38;;
63444;SDS011;49573;47.682;9.170;2023-02-28T17:08:27;16.23;;;11.00;;
63444;SDS011;49573;47.682;9.170;2023-02-28T17:11:15;16.20;;;11.07;;
63444;SDS011;49573;47.682;9.170;2023-02-28T17:14:01;17.88;;;11.82;;
63444;SDS011;49573;47.682;9.170;2023-02-28T17:16:48;17.85;;;12.30;;
63444;SDS011;49573;47.682;9.170;2023-02-28T17:19:34;18.90;;;13.10;;
63444;SDS011;49573;47.682;9.170;2023-02-28T17:22:22;19.10;;;12.60;;
63444;SDS011;49573;47.682;9.170;2023-02-28T17:25:11;19.17;;;11.32;;